createdAt,value
2023-01-22T00:04:06.085Z,-1.74
2023-01-22T00:08:18.861Z,-1.77
2023-01-22T00:12:30.507Z,-1.72
2023-01-22T00:16:42.575Z,-1.74
2023-01-22T00:20:55.450Z,-1.77
2023-01-22T00:25:07.732Z,-1.84
2023-01-22T00:29:19.354Z,-1.86
2023-01-22T00:33:31.540Z,-1.82
2023-01-22T00:37:43.123Z,-1.83
2023-01-22T00:41:54.878Z,-1.90
2023-01-22T00:46:12.729Z,-1.93
2023-01-22T00:50:24.361Z,-2.02
2023-01-22T00:54:35.994Z,-1.87
2023-01-22T00:58:47.629Z,-1.95
2023-01-22T01:03:28.699Z,-1.97
2023-01-22T01:07:40.350Z,-1.92
2023-01-22T01:11:51.925Z,-2.00
2023-01-22T01:16:06.630Z,-2.00
2023-01-22T01:20:18.624Z,-2.06
2023-01-22T01:24:30.403Z,-2.00
2023-01-22T01:28:43.308Z,-2.09
2023-01-22T01:32:55.167Z,-2.11
2023-01-22T01:37:06.948Z,-2.12
2023-01-22T01:41:21.958Z,-2.17
2023-01-22T01:45:34.579Z,-2.07
2023-01-22T01:49:52.638Z,-2.17
2023-01-22T01:54:05.324Z,-2.17
2023-01-22T01:58:21.701Z,-2.15
2023-01-22T02:02:33.465Z,-2.18
2023-01-22T02:06:45.158Z,-2.20
2023-01-22T02:10:57.222Z,-2.23
2023-01-22T02:15:10.092Z,-2.27
2023-01-22T02:19:21.734Z,-2.27
2023-01-22T02:23:33.506Z,-2.31
2023-01-22T02:27:45.682Z,-2.24
2023-01-22T02:31:57.542Z,-2.25
2023-01-22T02:36:09.378Z,-2.23
2023-01-22T02:40:21.112Z,-2.31
2023-01-22T02:44:32.894Z,-2.22
2023-01-22T02:48:44.806Z,-2.29
2023-01-22T02:52:56.476Z,-2.34
2023-01-22T02:57:08.195Z,-2.29
2023-01-22T03:01:22.615Z,-2.19
2023-01-22T03:05:36.559Z,-2.09
2023-01-22T03:09:49.461Z,-1.88
2023-01-22T03:14:19.999Z,-1.82
2023-01-22T03:18:50.483Z,-1.64
2023-01-22T03:23:03.951Z,-1.45
2023-01-22T03:27:15.614Z,-1.39
2023-01-22T03:31:27.893Z,-1.25
2023-01-22T03:35:39.619Z,-1.09
2023-01-22T03:40:02.996Z,-1.06
2023-01-22T03:44:22.531Z,-0.89
2023-01-22T03:48:34.412Z,-0.84
2023-01-22T03:52:46.437Z,-0.64
2023-01-22T03:56:58.120Z,-0.62
2023-01-22T04:01:21.372Z,-0.48
2023-01-22T04:05:34.073Z,-0.51
2023-01-22T04:09:45.840Z,-0.39
2023-01-22T04:13:57.851Z,-0.40
2023-01-22T04:18:12.928Z,-0.35
2023-01-22T04:22:30.736Z,-0.33
2023-01-22T04:26:42.476Z,-0.26
2023-01-22T04:30:56.334Z,-0.27
2023-01-22T04:35:18.924Z,-0.20
2023-01-22T04:39:37.716Z,-0.16
2023-01-22T04:43:49.573Z,-0.29
2023-01-22T04:48:02.200Z,-0.25
2023-01-22T04:52:14.789Z,-0.23
2023-01-22T04:56:27.439Z,-0.22
2023-01-22T05:00:39.424Z,-0.19
2023-01-22T05:04:51.630Z,-0.26
2023-01-22T05:09:03.642Z,-0.10
2023-01-22T05:13:23.629Z,-0.19
2023-01-22T05:17:36.040Z,-0.05
2023-01-22T05:21:47.750Z,-0.07
2023-01-22T05:26:02.235Z,-0.06
2023-01-22T05:30:26.842Z,-0.07
2023-01-22T05:34:57.187Z,-0.01
2023-01-22T05:39:10.527Z,0.00
2023-01-22T05:43:22.927Z,0.05
2023-01-22T05:47:43.724Z,-0.07
2023-01-22T05:52:13.186Z,0.08
2023-01-22T05:56:25.137Z,0.02
2023-01-22T06:00:36.818Z,0.01
2023-01-22T06:04:51.801Z,0.05
2023-01-22T06:09:08.217Z,0.07
2023-01-22T06:13:22.683Z,0.14
2023-01-22T06:17:41.086Z,-0.06
2023-01-22T06:21:52.984Z,0.12
2023-01-22T06:26:10.271Z,0.10
2023-01-22T06:30:21.971Z,0.12
2023-01-22T06:34:34.014Z,0.05
2023-01-22T06:38:47.821Z,0.21
2023-01-22T06:43:05.610Z,0.12
2023-01-22T06:47:17.745Z,0.20
2023-01-22T06:51:30.554Z,0.11
2023-01-22T06:55:42.542Z,0.06
2023-01-22T06:59:54.130Z,0.11
2023-01-22T07:04:05.794Z,0.04
2023-01-22T07:08:17.545Z,0.19
2023-01-22T07:12:29.004Z,0.18
2023-01-22T07:16:40.584Z,0.10
2023-01-22T07:20:52.078Z,0.09
2023-01-22T07:25:03.854Z,0.05
2023-01-22T07:29:15.376Z,-0.02
2023-01-22T07:33:26.868Z,-0.09
2023-01-22T07:37:38.313Z,-0.09
2023-01-22T07:41:49.820Z,-0.13
2023-01-22T07:46:04.469Z,-0.07
2023-01-22T07:50:16.116Z,-0.04
2023-01-22T07:54:27.800Z,0.02
2023-01-22T07:58:40.154Z,-0.02
2023-01-22T08:02:51.659Z,0.04
2023-01-22T08:07:03.218Z,0.09
2023-01-22T08:11:15.045Z,0.20
2023-01-22T08:15:26.655Z,0.30
2023-01-22T08:19:38.164Z,0.34
2023-01-22T08:23:49.733Z,0.38
2023-01-22T08:28:02.932Z,0.46
2023-01-22T08:32:14.464Z,0.54
2023-01-22T08:36:26.263Z,0.58
2023-01-22T08:40:38.133Z,0.60
2023-01-22T08:44:49.717Z,0.69
2023-01-22T08:49:03.488Z,0.74
2023-01-22T08:53:15.155Z,0.80
2023-01-22T08:57:26.787Z,0.86
2023-01-22T09:01:38.379Z,0.88
2023-01-22T09:05:51.011Z,0.99
2023-01-22T09:10:02.649Z,0.93
2023-01-22T09:14:14.372Z,1.00
2023-01-22T09:18:26.141Z,1.05
2023-01-22T09:22:37.704Z,1.07
2023-01-22T09:26:49.492Z,1.11
2023-01-22T09:31:01.243Z,1.19
2023-01-22T09:35:14.445Z,1.18
2023-01-22T09:39:27.147Z,1.24
2023-01-22T09:43:53.865Z,1.24
2023-01-22T09:48:09.867Z,1.21
2023-01-22T09:52:27.472Z,1.34
2023-01-22T09:56:43.120Z,1.38
2023-01-22T10:01:01.759Z,1.38
2023-01-22T10:05:34.522Z,1.42
2023-01-22T10:09:53.356Z,1.45
2023-01-22T10:14:09.499Z,1.52
2023-01-22T10:18:48.661Z,1.58
2023-01-22T10:23:16.398Z,1.58
2023-01-22T10:27:41.927Z,1.61
2023-01-22T10:32:03.090Z,1.63
2023-01-22T10:36:15.270Z,1.66
2023-01-22T10:40:41.070Z,1.68
2023-01-22T10:45:15.479Z,1.69
2023-01-22T10:49:27.948Z,1.75
2023-01-22T10:53:54.451Z,1.82
2023-01-22T10:58:13.521Z,1.77
2023-01-22T11:02:26.564Z,1.82
2023-01-22T11:06:44.709Z,1.87
2023-01-22T11:11:05.885Z,1.89
2023-01-22T11:15:29.671Z,1.86
2023-01-22T11:19:50.173Z,1.87
2023-01-22T11:24:09.919Z,1.89
2023-01-22T11:28:45.524Z,1.98
2023-01-22T11:33:06.148Z,2.05
2023-01-22T11:37:22.418Z,2.06
2023-01-22T11:42:24.719Z,2.03
2023-01-22T11:47:04.774Z,1.97
2023-01-22T11:51:57.076Z,1.98
2023-01-22T11:56:31.668Z,2.00
2023-01-22T12:01:21.281Z,2.06
2023-01-22T12:05:53.986Z,2.22
2023-01-22T12:10:42.407Z,2.27
2023-01-22T12:15:13.464Z,2.30
2023-01-22T12:19:49.963Z,2.29
2023-01-22T12:24:14.891Z,2.44
2023-01-22T12:28:43.073Z,2.48
2023-01-22T12:33:01.019Z,2.43
2023-01-22T12:37:18.835Z,2.50
2023-01-22T12:41:54.064Z,2.55
2023-01-22T12:46:17.861Z,2.57
2023-01-22T12:50:29.739Z,2.56
2023-01-22T12:54:41.382Z,2.57
2023-01-22T12:58:56.909Z,2.58
2023-01-22T13:03:33.080Z,2.50
2023-01-22T13:07:45.892Z,2.52
2023-01-22T13:12:08.400Z,2.55
2023-01-22T13:16:34.447Z,2.58
2023-01-22T13:20:52.698Z,2.59
2023-01-22T13:25:04.538Z,2.56
2023-01-22T13:29:27.243Z,2.65
2023-01-22T13:33:38.939Z,2.72
2023-01-22T13:37:53.470Z,2.70
2023-01-22T13:42:05.695Z,2.60
2023-01-22T13:46:17.441Z,2.66
2023-01-22T13:50:31.200Z,2.46
2023-01-22T13:54:46.446Z,2.49
2023-01-22T13:59:39.935Z,2.46
2023-01-22T14:04:07.855Z,2.47
2023-01-22T14:08:19.439Z,2.48
2023-01-22T14:12:31.083Z,2.41
2023-01-22T14:16:42.993Z,2.42
2023-01-22T14:20:54.649Z,2.50
2023-01-22T14:25:06.915Z,2.35
2023-01-22T14:29:18.599Z,2.30
2023-01-22T14:33:32.371Z,2.42
2023-01-22T14:37:43.992Z,2.34
2023-01-22T14:41:55.634Z,2.39
2023-01-22T14:46:08.234Z,2.36
2023-01-22T14:50:21.356Z,2.33
2023-01-22T14:54:33.088Z,2.30
2023-01-22T14:58:44.627Z,2.32
2023-01-22T15:02:57.834Z,2.29
2023-01-22T15:07:09.774Z,2.39
2023-01-22T15:11:21.348Z,2.45
2023-01-22T15:15:33.032Z,2.43
2023-01-22T15:19:44.735Z,2.49
2023-01-22T15:23:56.379Z,2.45
2023-01-22T15:28:07.943Z,2.41
2023-01-22T15:32:19.546Z,2.35
2023-01-22T15:36:33.449Z,2.39
2023-01-22T15:40:45.013Z,2.37
2023-01-22T15:44:56.592Z,2.35
2023-01-22T15:49:09.000Z,2.37
2023-01-22T15:53:20.713Z,2.42
2023-01-22T15:57:32.378Z,2.40
2023-01-22T16:01:44.141Z,2.37
2023-01-22T16:05:55.884Z,2.39
2023-01-22T16:10:07.794Z,2.30
2023-01-22T16:14:19.821Z,2.31
2023-01-22T16:18:33.408Z,2.32
2023-01-22T16:22:45.961Z,2.31
2023-01-22T16:26:57.500Z,2.34
2023-01-22T16:31:12.527Z,2.27
2023-01-22T16:35:24.201Z,2.32
2023-01-22T16:39:36.824Z,2.28
2023-01-22T16:43:50.420Z,2.33
2023-01-22T16:48:02.131Z,2.31
2023-01-22T16:52:22.319Z,2.34
2023-01-22T16:56:35.357Z,2.34
2023-01-22T17:00:47.470Z,2.30
2023-01-22T17:04:59.285Z,2.26
2023-01-22T17:09:20.038Z,2.31
2023-01-22T17:13:31.796Z,2.24
2023-01-22T17:17:43.594Z,2.29
2023-01-22T17:21:57.986Z,2.13
2023-01-22T17:26:12.392Z,2.18
2023-01-22T17:30:24.154Z,2.18
2023-01-22T17:34:37.327Z,2.14
2023-01-22T17:38:49.038Z,2.16
2023-01-22T17:43:00.669Z,2.21
2023-01-22T17:47:12.590Z,2.18
2023-01-22T17:51:27.034Z,2.17
2023-01-22T17:55:39.981Z,2.02
2023-01-22T17:59:51.551Z,2.18
2023-01-22T18:04:06.230Z,2.16
2023-01-22T18:08:18.522Z,2.22
2023-01-22T18:12:30.160Z,2.19
2023-01-22T18:16:41.848Z,2.19
2023-01-22T18:20:53.466Z,2.03
2023-01-22T18:25:05.545Z,2.06
2023-01-22T18:29:17.180Z,2.13
2023-01-22T18:33:28.784Z,2.18
2023-01-22T18:37:40.547Z,2.19
2023-01-22T18:41:52.196Z,2.29
2023-01-22T18:46:09.661Z,2.29
2023-01-22T18:50:22.155Z,2.29
2023-01-22T18:54:33.875Z,2.14
2023-01-22T18:58:46.353Z,2.18
2023-01-22T19:02:59.238Z,2.10
2023-01-22T19:07:10.928Z,2.05
2023-01-22T19:11:23.703Z,2.22
2023-01-22T19:15:35.460Z,2.14
2023-01-22T19:19:47.143Z,2.12
2023-01-22T19:24:01.259Z,2.13
2023-01-22T19:28:12.928Z,2.03
2023-01-22T19:32:27.958Z,2.12
2023-01-22T19:36:39.953Z,2.28
2023-01-22T19:40:51.633Z,2.05
2023-01-22T19:45:03.595Z,2.25
2023-01-22T19:49:15.711Z,2.38
2023-01-22T19:53:28.153Z,2.38
2023-01-22T19:57:39.719Z,2.40
2023-01-22T20:01:51.739Z,2.41
2023-01-22T20:06:11.498Z,2.36
2023-01-22T20:10:23.121Z,2.35
2023-01-22T20:14:39.052Z,2.31
2023-01-22T20:18:52.527Z,2.48
2023-01-22T20:23:04.201Z,2.38
2023-01-22T20:27:15.961Z,2.39
2023-01-22T20:31:27.882Z,2.16
2023-01-22T20:35:43.175Z,2.32
2023-01-22T20:39:55.026Z,2.19
2023-01-22T20:44:06.696Z,2.12
2023-01-22T20:48:18.254Z,2.12
2023-01-22T20:52:30.019Z,2.08
2023-01-22T20:56:41.642Z,2.02
2023-01-22T21:00:53.685Z,2.06
2023-01-22T21:05:05.495Z,1.96
2023-01-22T21:09:17.387Z,1.98
2023-01-22T21:13:29.284Z,2.19
2023-01-22T21:17:41.295Z,2.27
2023-01-22T21:21:53.274Z,2.20
2023-01-22T21:26:06.395Z,2.31
2023-01-22T21:30:18.320Z,2.25
2023-01-22T21:34:30.169Z,2.20
2023-01-22T21:38:42.056Z,2.28
2023-01-22T21:43:12.227Z,2.29
2023-01-22T21:47:23.989Z,2.32
2023-01-22T21:51:35.656Z,2.34
2023-01-22T21:55:53.771Z,2.40
2023-01-22T22:00:05.932Z,2.32
2023-01-22T22:04:18.098Z,2.37
2023-01-22T22:08:29.766Z,2.14
2023-01-22T22:12:42.615Z,2.39
2023-01-22T22:16:54.726Z,2.50
2023-01-22T22:21:08.353Z,2.49
2023-01-22T22:25:20.987Z,2.32
2023-01-22T22:29:32.604Z,2.42
2023-01-22T22:33:46.810Z,2.59
2023-01-22T22:37:58.445Z,2.44
2023-01-22T22:42:10.255Z,2.44
2023-01-22T22:46:27.865Z,2.28
2023-01-22T22:50:42.894Z,2.50
2023-01-22T22:54:54.481Z,2.40
2023-01-22T22:59:06.226Z,2.41
2023-01-22T23:03:17.940Z,2.37
2023-01-22T23:07:29.598Z,2.41
2023-01-22T23:11:41.826Z,2.52
2023-01-22T23:15:53.419Z,2.50
2023-01-22T23:20:05.456Z,2.43
2023-01-22T23:24:17.283Z,2.43
2023-01-22T23:28:28.989Z,2.56
2023-01-22T23:32:40.631Z,2.42
2023-01-22T23:36:52.433Z,2.42
2023-01-22T23:41:06.447Z,2.56
2023-01-22T23:45:18.207Z,2.53
2023-01-22T23:49:29.878Z,2.42
2023-01-22T23:53:44.639Z,2.55
2023-01-22T23:57:56.276Z,2.41
